Time;durP1;ratioP1;P1;durP2;ratioP2;P2;SDS_P1;SDS_P2;PMS_P1;PMS_P2;Temp;Humidity;BMP_temperature;BMP_pressure;BME280_temperature;BME280_humidity;BME280_pressure;Samples;Min_cycle;Max_cycle;Signal;HPM_P1;HPM_P2
2022/05/03 00:01:30;;;;;;;18.38;8.77;;;;;;;22.89;47.95;101519.63;4173275;28;20037;-67
2022/05/03 00:03:44;;;;;;;20.00;9.60;;;;;;;22.80;47.25;101502.56;4184557;28;20049;-67
2022/05/03 00:05:50;;;;;;;24.80;10.40;;;;;;;22.91;47.71;101524.91;4183855;28;20106;-68
2022/05/03 00:08:19;;;;;;;14.50;8.93;;;;;;;22.84;47.64;101526.00;4184394;28;20090;-68
2022/05/03 00:10:26;;;;;;;22.52;10.35;;;;;;;22.89;47.17;101541.09;4183994;28;20745;-68
2022/05/03 00:12:39;;;;;;;18.42;9.52;;;;;;;22.88;47.23;101545.00;4184532;28;20029;-66
2022/05/03 00:14:48;;;;;;;18.20;9.02;;;;;;;22.88;46.72;101536.63;4167812;28;20046;-67
2022/05/03 00:16:51;;;;;;;26.52;10.70;;;;;;;22.87;46.41;101546.13;4167944;28;20104;-68
2022/05/03 00:18:56;;;;;;;20.42;9.07;;;;;;;22.83;46.50;101543.88;4168428;28;20045;-67
2022/05/03 00:20:57;;;;;;;18.92;9.90;;;;;;;22.84;46.53;101559.50;4167912;28;20362;-67
2022/05/03 00:23:03;;;;;;;18.80;9.18;;;;;;;22.85;46.24;101565.91;4167277;28;20042;-67
2022/05/03 00:25:05;;;;;;;19.40;9.32;;;;;;;22.67;47.00;101535.78;4167884;28;20045;-67
2022/05/03 00:27:06;;;;;;;17.35;8.90;;;;;;;22.82;46.46;101572.91;4166652;28;20095;-67
2022/05/03 00:29:10;;;;;;;19.60;8.93;;;;;;;22.84;46.42;101569.81;4168165;28;20065;-66
2022/05/03 00:31:17;;;;;;;18.02;9.10;;;;;;;22.74;46.39;101565.09;4168628;28;20037;-67
2022/05/03 00:33:21;;;;;;;18.85;9.25;;;;;;;22.84;46.26;101584.63;4168441;28;20038;-68
2022/05/03 00:35:24;;;;;;;19.63;9.80;;;;;;;22.84;46.32;101589.34;4166934;28;20037;-66
2022/05/03 00:37:26;;;;;;;15.18;9.48;;;;;;;22.82;46.68;101589.66;4168185;28;20099;-67
2022/05/03 00:39:27;;;;;;;17.20;8.75;;;;;;;22.80;46.62;101586.28;4166221;28;20127;-67
2022/05/03 00:41:40;;;;;;;18.25;9.57;;;;;;;22.79;46.50;101590.19;4167815;28;20037;-67
2022/05/03 00:43:47;;;;;;;22.05;9.80;;;;;;;22.82;46.20;101589.66;4169805;28;20037;-67
2022/05/03 00:45:58;;;;;;;17.27;9.57;;;;;;;22.80;46.67;101603.03;4170128;28;20424;-68
2022/05/03 00:48:10;;;;;;;17.42;9.60;;;;;;;22.65;46.38;101582.66;4180021;28;20095;-68
2022/05/03 00:50:28;;;;;;;16.15;8.73;;;;;;;22.79;46.29;101604.16;4184570;28;20040;-68
2022/05/03 00:53:00;;;;;;;21.95;10.57;;;;;;;22.62;46.47;101589.63;4184924;28;20037;-68
2022/05/03 00:55:56;;;;;;;19.38;10.20;;;;;;;22.76;46.62;101613.06;4182301;28;20053;-68
2022/05/03 00:58:28;;;;;;;21.02;10.35;;;;;;;22.79;46.35;101608.91;4147924;28;20489;-68
2022/05/03 01:00:32;;;;;;;20.92;9.85;;;;;;;22.78;46.25;101610.00;4184634;28;20103;-67
2022/05/03 01:02:58;;;;;;;22.08;10.48;;;;;;;22.79;46.81;101618.09;4167965;28;20435;-68
2022/05/03 01:05:14;;;;;;;18.33;10.18;;;;;;;22.77;46.29;101625.91;4167346;28;20045;-68
2022/05/03 01:07:32;;;;;;;;;;;;;;;22.77;47.02;101631.50;4167934;28;20068;-67
2022/05/03 01:09:50;;;;;;;20.02;9.38;;;;;;;22.78;46.39;101622.00;4167212;28;19987;-68
2022/05/03 01:12:17;;;;;;;20.05;9.68;;;;;;;22.79;46.57;101634.84;4166991;28;20060;-67
2022/05/03 01:14:56;;;;;;;17.38;9.60;;;;;;;22.76;45.94;101638.19;4167120;28;20037;-67
2022/05/03 01:17:09;;;;;;;18.58;9.43;;;;;;;22.77;46.34;101642.66;4166609;28;20104;-66
2022/05/03 01:19:28;;;;;;;13.50;8.98;;;;;;;22.62;46.56;101625.88;4166839;28;20100;-67
2022/05/03 01:21:31;;;;;;;15.23;9.18;;;;;;;22.77;46.14;101652.97;4166936;28;20041;-67
2022/05/03 01:23:50;;;;;;;14.48;9.10;;;;;;;22.75;46.15;101650.47;4166790;28;20079;-67
2022/05/03 01:26:24;;;;;;;15.63;9.07;;;;;;;22.74;45.85;101659.13;4166228;28;20087;-65
2022/05/03 01:28:48;;;;;;;16.50;8.93;;;;;;;22.72;45.92;101664.13;4166983;28;20046;-66
2022/05/03 01:30:50;;;;;;;16.80;9.02;;;;;;;22.70;45.50;101657.97;4182085;28;20037;-66
2022/05/03 01:32:55;;;;;;;15.98;8.40;;;;;;;22.67;45.73;101664.09;4183305;28;20033;-66
2022/05/03 01:35:06;;;;;;;15.93;9.35;;;;;;;22.68;45.93;101668.56;4182871;28;20041;-66
2022/05/03 01:37:33;;;;;;;15.05;8.93;;;;;;;22.65;45.76;101681.13;4182859;28;20361;-66
2022/05/03 01:39:58;;;;;;;15.73;9.38;;;;;;;22.65;46.19;101683.91;4183227;28;20032;-68
2022/05/03 01:42:37;;;;;;;15.52;8.68;;;;;;;22.65;45.91;101678.34;4176227;28;20443;-66
2022/05/03 01:44:44;;;;;;;15.38;9.55;;;;;;;22.68;45.68;101694.53;4164958;28;20053;-66
2022/05/03 01:46:53;;;;;;;15.70;9.90;;;;;;;22.66;46.23;101693.97;4165429;28;20345;-69
2022/05/03 01:51:36;;;;;;;28.67;10.00;;;;;;;22.71;45.32;101688.38;4166549;28;20033;-68
2022/05/03 01:53:46;;;;;;;26.27;9.73;;;;;;;22.59;45.76;101676.66;4166700;28;20033;-68
2022/05/03 01:56:05;;;;;;;29.10;10.48;;;;;;;22.71;45.59;101691.19;4165561;28;20037;-68
2022/05/03 01:58:21;;;;;;;27.65;9.98;;;;;;;22.73;45.31;101702.91;4166344;28;20091;-67
2022/05/03 02:00:23;;;;;;;40.65;10.57;;;;;;;22.73;45.38;101704.88;4166427;28;20045;-67
2022/05/03 02:02:58;;;;;;;38.63;10.45;;;;;;;22.73;45.74;101716.88;4166347;28;20103;-67
2022/05/03 02:05:07;;;;;;;34.00;9.88;;;;;;;22.53;45.56;101674.94;4166469;28;20111;-68
2022/05/03 02:07:20;;;;;;;38.72;10.68;;;;;;;22.70;45.67;101697.88;4165682;28;20075;-67
2022/05/03 02:09:28;;;;;;;25.80;9.68;;;;;;;22.55;45.37;101676.38;4166196;28;20099;-67
2022/05/03 02:11:56;;;;;;;32.15;9.95;;;;;;;22.69;45.51;101696.22;4166145;28;20405;-68
2022/05/03 02:16:52;;;;;;;30.25;10.02;;;;;;;22.71;45.44;101704.28;4165726;28;20037;-68
2022/05/03 02:19:29;;;;;;;28.25;10.52;;;;;;;22.71;45.37;101709.88;4166037;28;20041;-68
2022/05/03 02:21:33;;;;;;;;;;;;;;;22.69;45.61;101718.53;4166420;28;20029;-68
2022/05/03 02:23:50;;;;;;;26.67;9.40;;;;;;;22.75;45.49;101720.22;4165924;28;19920;-67
2022/05/03 02:26:30;;;;;;;25.30;10.68;;;;;;;22.72;45.79;101720.75;4165633;28;20034;-67
2022/05/03 02:29:02;;;;;;;28.38;10.20;;;;;;;22.74;45.95;101723.28;4164452;28;20115;-67
2022/05/03 02:31:14;;;;;;;19.15;10.80;;;;;;;22.77;45.48;101726.38;4166007;28;20500;-68
2022/05/03 02:33:31;;;;;;;29.30;9.73;;;;;;;22.75;45.86;101731.38;4165541;28;20041;-68
2022/05/03 02:35:34;;;;;;;27.25;10.57;;;;;;;22.74;45.25;101718.53;4165538;28;20037;-67
2022/05/03 02:37:48;;;;;;;19.48;10.05;;;;;;;22.75;45.64;101723.00;4165409;28;20071;-68
2022/05/03 02:40:09;;;;;;;18.23;9.43;;;;;;;22.77;45.35;101720.78;4165976;28;20041;-68
2022/05/03 02:42:11;;;;;;;20.75;9.52;;;;;;;22.75;45.54;101723.00;4166047;28;20041;-67
2022/05/03 02:44:13;;;;;;;22.27;9.25;;;;;;;22.79;45.23;101723.31;4165869;28;20045;-68
2022/05/03 02:46:21;;;;;;;22.75;9.68;;;;;;;22.77;45.85;101734.75;4165510;28;20045;-67
2022/05/03 02:48:46;;;;;;;18.55;9.07;;;;;;;22.77;46.13;101726.38;4165991;28;20481;-68
2022/05/03 02:51:02;;;;;;;18.50;8.52;;;;;;;22.79;46.08;101726.91;4165240;28;20041;-68
2022/05/03 02:53:09;;;;;;;23.88;10.50;;;;;;;22.81;45.58;101727.47;4164059;28;20038;-68
2022/05/03 02:55:31;;;;;;;19.20;9.23;;;;;;;22.82;45.84;101729.19;4165180;28;20439;-68
2022/05/03 02:57:45;;;;;;;18.27;9.27;;;;;;;22.84;45.61;101717.72;4165495;28;20038;-69
2022/05/03 03:02:43;;;;;;;13.77;8.50;;;;;;;22.65;46.25;101683.91;4165413;28;20083;-68
2022/05/03 03:04:49;;;;;;;16.70;8.77;;;;;;;22.83;45.86;101714.09;4165409;28;20091;-69
2022/05/03 03:06:58;;;;;;;19.08;9.63;;;;;;;22.82;45.68;101718.00;4164973;28;20075;-69
2022/05/03 03:09:01;;;;;;;19.50;8.20;;;;;;;22.83;45.60;101719.69;4165359;28;20053;-69
2022/05/03 03:11:05;;;;;;;20.63;8.77;;;;;;;22.83;45.71;101730.00;4165388;28;20550;-69
2022/05/03 03:13:13;;;;;;;16.58;9.15;;;;;;;22.83;46.00;101730.84;4165379;28;20473;-68
2022/05/03 03:15:21;;;;;;;22.02;9.90;;;;;;;22.86;46.10;101725.81;4164753;28;20092;-68
2022/05/03 03:17:28;;;;;;;13.15;8.43;;;;;;;22.88;45.28;101727.22;4165192;28;20041;-68
2022/05/03 03:20:09;;;;;;;17.17;8.80;;;;;;;22.88;45.69;101730.03;4165370;28;20037;-69
2022/05/03 03:22:15;;;;;;;50.30;33.53;;;;;;;22.94;45.39;101730.91;4165443;28;20095;-68
2022/05/03 03:24:20;;;;;;;151.55;99.03;;;;;;;22.82;46.31;101708.81;4166221;28;20444;-68
2022/05/03 03:26:26;;;;;;;163.60;108.75;;;;;;;22.96;46.36;101740.69;4164924;28;20049;-69
2022/05/03 03:28:32;;;;;;;133.07;83.80;;;;;;;22.98;46.80;101743.19;4164988;28;20436;-68
2022/05/03 03:30:35;;;;;;;107.53;68.63;;;;;;;23.00;46.66;101746.53;4165470;28;20443;-67
2022/05/03 03:32:38;;;;;;;92.40;61.25;;;;;;;22.98;47.53;101740.41;4165326;28;20042;-67
2022/05/03 03:34:42;;;;;;;83.80;50.60;;;;;;;22.98;49.21;101743.19;4165050;28;20041;-67
2022/05/03 03:36:47;;;;;;;81.80;53.17;;;;;;;23.00;48.26;101754.91;4165239;28;20045;-67
2022/05/03 03:38:49;;;;;;;77.65;49.80;;;;;;;22.97;48.01;101753.53;4165671;28;20088;-68
2022/05/03 03:40:50;;;;;;;73.22;46.30;;;;;;;23.00;48.59;101743.75;4165066;28;20033;-68
2022/05/03 03:42:54;;;;;;;67.18;43.58;;;;;;;23.00;48.42;101752.13;4165220;28;20037;-68
2022/05/03 03:45:01;;;;;;;55.40;37.53;;;;;;;23.00;48.19;101761.34;4165310;28;20045;-68
2022/05/03 03:47:03;;;;;;;62.88;37.83;;;;;;;23.01;48.55;101764.97;4165492;28;20286;-68
2022/05/03 03:49:08;;;;;;;52.92;36.25;;;;;;;23.01;48.74;101776.97;4165740;28;20111;-69
2022/05/03 03:51:12;;;;;;;50.70;33.72;;;;;;;23.01;48.16;101776.97;4165518;28;20037;-67
2022/05/03 03:53:17;;;;;;;45.50;31.83;;;;;;;23.00;48.19;101785.59;4165306;28;20042;-67
2022/05/03 03:55:19;;;;;;;45.40;30.33;;;;;;;22.92;48.35;101772.22;4163237;28;20026;-66
2022/05/03 03:57:22;;;;;;;46.53;32.45;;;;;;;23.01;48.75;101781.72;4165488;28;20431;-67
2022/05/03 03:59:30;;;;;;;45.67;31.40;;;;;;;23.01;48.92;101782.56;4165126;28;20362;-67
2022/05/03 04:01:34;;;;;;;44.35;30.25;;;;;;;23.02;48.40;101791.78;4163895;28;20046;-67
2022/05/03 04:03:37;;;;;;;44.22;30.00;;;;;;;23.05;48.11;101791.22;4165078;28;20075;-67
2022/05/03 04:05:39;;;;;;;43.22;29.05;;;;;;;23.00;48.54;101791.19;4165972;28;20045;-67
2022/05/03 04:07:43;;;;;;;45.45;27.80;;;;;;;23.04;48.30;101792.31;4165496;28;20095;-68
2022/05/03 04:09:44;;;;;;;47.33;29.38;;;;;;;23.02;48.04;101783.41;4165009;28;20511;-68
2022/05/03 04:11:47;;;;;;;47.55;29.77;;;;;;;23.07;48.23;101797.38;4172862;28;20104;-69
2022/05/03 04:13:48;;;;;;;42.00;25.65;;;;;;;23.05;47.90;101789.28;4170659;28;20087;-68
2022/05/03 04:15:53;;;;;;;39.88;27.63;;;;;;;22.95;47.93;101772.47;4181249;28;20033;-68
2022/05/03 04:17:55;;;;;;;35.13;25.38;;;;;;;23.09;47.93;101800.72;4182365;28;20102;-66
2022/05/03 04:19:56;;;;;;;35.92;25.48;;;;;;;22.94;47.74;101781.13;4182300;28;20029;-67
2022/05/03 04:22:12;;;;;;;37.50;24.65;;;;;;;23.07;47.80;101806.56;4182169;28;20045;-67
2022/05/03 04:24:14;;;;;;;38.28;25.17;;;;;;;22.89;47.76;101779.16;4181673;28;20101;-67
2022/05/03 04:26:15;;;;;;;38.38;26.30;;;;;;;22.91;47.71;101781.66;4181357;28;20037;-67
2022/05/03 04:28:16;;;;;;;33.83;24.85;;;;;;;23.07;47.72;101811.31;4181209;28;20480;-67
2022/05/03 04:30:18;;;;;;;31.73;21.92;;;;;;;23.05;47.65;101807.97;4180458;28;20041;-68
2022/05/03 04:32:20;;;;;;;36.80;25.25;;;;;;;23.05;47.25;101802.41;4180866;28;20041;-68
2022/05/03 04:34:21;;;;;;;41.20;24.40;;;;;;;22.93;47.54;101785.88;4180971;28;20120;-68
2022/05/03 04:36:26;;;;;;;37.00;24.95;;;;;;;23.03;47.57;101807.41;4178998;28;20033;-68
2022/05/03 04:38:28;;;;;;;37.22;25.55;;;;;;;23.02;47.96;101800.16;4180673;28;20056;-68
2022/05/03 04:40:29;;;;;;;37.33;25.58;;;;;;;23.00;47.67;101796.78;4183268;28;20091;-68
2022/05/03 04:42:30;;;;;;;39.30;25.38;;;;;;;23.00;47.64;101803.22;4192951;28;20032;-68
2022/05/03 04:44:32;;;;;;;26.80;19.10;;;;;;;23.02;47.14;101812.16;4200515;28;20052;-68
2022/05/03 04:46:38;;;;;;;28.67;20.23;;;;;;;22.92;47.24;101800.13;4200169;28;20040;-68
2022/05/03 04:48:40;;;;;;;31.45;22.42;;;;;;;23.03;47.24;101818.56;4199760;28;20090;-68
2022/05/03 04:50:42;;;;;;;32.10;23.30;;;;;;;23.03;47.40;101818.56;4200424;28;20036;-69
2022/05/03 04:52:43;;;;;;;36.33;23.42;;;;;;;23.00;47.13;101816.31;4200549;28;20037;-69
2022/05/03 04:54:44;;;;;;;30.58;22.95;;;;;;;23.01;47.07;101820.81;4200445;28;20037;-68
2022/05/03 04:56:58;;;;;;;32.50;22.23;;;;;;;23.01;47.54;101826.38;4199654;28;20040;-68
2022/05/03 05:38:14;;;;;;;26.35;17.60;;;;;;;22.95;47.03;101805.97;4200791;28;20044;-67
2022/05/03 05:40:37;;;;;;;26.30;17.77;;;;;;;22.94;46.81;101803.47;4199408;28;20480;-67
2022/05/03 05:42:38;;;;;;;22.58;17.23;;;;;;;22.97;46.46;101802.94;4199618;28;20090;-67
2022/05/03 05:44:52;;;;;;;24.10;16.02;;;;;;;22.94;46.86;101809.88;4199121;28;20377;-67
2022/05/03 05:46:54;;;;;;;23.30;16.92;;;;;;;22.92;46.53;101808.50;4199398;28;20117;-67
2022/05/03 05:49:01;;;;;;;20.90;15.93;;;;;;;22.93;46.69;101818.53;4199372;28;20479;-67
2022/05/03 05:51:03;;;;;;;20.55;15.75;;;;;;;22.91;46.28;101809.59;4197630;28;20040;-67
2022/05/03 05:55:24;;;;;;;26.48;18.25;;;;;;;22.91;46.24;101804.88;4199113;28;20453;-67
2022/05/03 05:57:26;;;;;;;23.50;18.73;;;;;;;22.90;46.77;101803.16;4199551;28;20041;-68
2022/05/03 05:59:27;;;;;;;24.23;17.52;;;;;;;22.90;46.47;101802.31;4199252;28;20045;-67
2022/05/03 06:01:44;;;;;;;21.23;15.77;;;;;;;22.89;46.70;101809.00;4198989;28;20097;-67
2022/05/03 06:03:45;;;;;;;21.23;15.80;;;;;;;22.91;45.95;101809.59;4199287;28;20067;-67
2022/05/03 06:05:47;;;;;;;24.50;15.45;;;;;;;22.93;46.36;101816.59;4198741;28;20475;-67
2022/05/03 06:07:48;;;;;;;23.17;16.73;;;;;;;22.93;45.91;101808.22;4183481;28;20095;-67
2022/05/03 06:09:51;;;;;;;20.27;15.23;;;;;;;22.92;46.16;101814.91;4180881;28;20059;-67
2022/05/03 06:12:01;;;;;;;27.48;16.85;;;;;;;22.92;46.47;101811.28;4181882;28;20075;-67
2022/05/03 06:14:05;;;;;;;20.90;16.10;;;;;;;22.91;46.40;101809.59;4182449;28;20036;-67
2022/05/03 06:16:08;;;;;;;24.05;16.90;;;;;;;22.74;46.51;101782.72;4182464;28;20045;-68
2022/05/03 06:18:09;;;;;;;20.30;15.65;;;;;;;22.88;46.51;101802.59;4182905;28;20040;-66
2022/05/03 06:20:11;;;;;;;17.88;14.27;;;;;;;22.90;45.98;101802.31;4182311;28;20541;-67
2022/05/03 06:22:13;;;;;;;20.65;16.00;;;;;;;22.74;46.27;101774.34;4181875;28;20037;-67
2022/05/03 06:24:15;;;;;;;20.10;14.85;;;;;;;22.91;46.12;101804.00;4182244;28;20036;-68
2022/05/03 06:26:17;;;;;;;18.42;14.90;;;;;;;22.90;45.77;101802.31;4182152;28;20090;-67
2022/05/03 06:28:19;;;;;;;19.58;15.77;;;;;;;22.90;46.38;101802.31;4181997;28;20109;-67
2022/05/03 06:30:20;;;;;;;20.00;15.48;;;;;;;22.90;46.31;101807.91;4181890;28;20044;-67
2022/05/03 06:32:22;;;;;;;21.20;16.20;;;;;;;22.91;45.94;101795.63;4182061;28;20041;-67
2022/05/03 06:34:23;;;;;;;20.95;15.38;;;;;;;22.93;46.22;101796.22;4181222;28;20419;-67
2022/05/03 06:36:27;;;;;;;20.40;15.35;;;;;;;22.91;46.30;101790.03;4184296;28;20108;-67
2022/05/03 06:38:34;;;;;;;21.02;15.10;;;;;;;22.90;46.02;101796.75;4182042;28;20037;-67
2022/05/03 06:40:36;;;;;;;19.50;14.57;;;;;;;22.90;45.78;101802.31;4182810;28;20533;-67
2022/05/03 06:42:40;;;;;;;19.80;15.30;;;;;;;22.89;46.17;101795.03;4181900;28;20102;-67
2022/05/03 06:44:42;;;;;;;20.27;15.20;;;;;;;22.89;46.29;101792.25;4181715;28;20052;-66
2022/05/03 06:46:44;;;;;;;18.77;14.85;;;;;;;22.89;46.40;101795.03;4182003;28;20086;-67
2022/05/03 06:48:46;;;;;;;17.60;14.60;;;;;;;22.90;46.17;101799.53;4182312;28;20036;-67
2022/05/03 06:50:47;;;;;;;19.33;15.18;;;;;;;22.90;46.31;101807.91;4181908;28;20094;-66
2022/05/03 06:52:51;;;;;;;19.08;14.45;;;;;;;22.89;46.24;101806.22;4182106;28;20423;-66
2022/05/03 06:54:55;;;;;;;17.10;13.43;;;;;;;22.89;46.02;101811.78;4181807;28;20037;-68
2022/05/03 06:56:57;;;;;;;18.17;14.65;;;;;;;22.89;46.40;101817.38;4182002;28;20033;-68
2022/05/03 06:58:58;;;;;;;19.05;14.15;;;;;;;22.89;46.24;101809.00;4194004;28;20482;-68
2022/05/03 07:01:14;;;;;;;20.00;14.25;;;;;;;22.75;46.25;101789.97;4200317;28;20110;-68
2022/05/03 07:03:17;;;;;;;17.77;13.40;;;;;;;22.91;46.10;101809.59;4200256;28;20044;-68
2022/05/03 07:05:18;;;;;;;17.52;14.25;;;;;;;22.92;46.01;101817.69;4193224;28;20041;-66
2022/05/03 07:07:22;;;;;;;17.90;13.52;;;;;;;22.91;45.83;101809.59;4186527;28;20128;-68
2022/05/03 07:09:23;;;;;;;16.35;13.35;;;;;;;22.92;45.71;101814.91;4184510;28;20048;-67
2022/05/03 07:11:25;;;;;;;17.30;13.05;;;;;;;22.94;45.80;101809.88;4184737;28;20045;-67
2022/05/03 07:13:28;;;;;;;16.85;12.52;;;;;;;22.93;45.39;101816.59;4187732;28;20090;-67
2022/05/03 07:15:30;;;;;;;15.90;13.38;;;;;;;22.69;45.75;101779.06;4193847;28;20052;-67
2022/05/03 07:24:37;;;;;;;17.90;14.30;;;;;;;22.92;46.05;101828.03;4182594;28;20029;-68
2022/05/03 07:26:38;;;;;;;18.05;14.68;;;;;;;22.91;45.77;101831.91;4182080;28;20029;-68
2022/05/03 07:28:40;;;;;;;18.33;13.02;;;;;;;22.91;45.60;101840.28;4181840;28;20044;-68
2022/05/03 07:30:42;;;;;;;15.75;12.18;;;;;;;22.90;45.45;101841.41;4197089;28;20060;-68
2022/05/03 07:32:45;;;;;;;15.80;12.52;;;;;;;22.91;45.82;101834.69;4197259;28;20045;-68
2022/05/03 07:34:49;;;;;;;14.88;12.43;;;;;;;22.74;45.72;101815.38;4197303;28;20455;-68
2022/05/03 07:36:53;;;;;;;15.15;12.02;;;;;;;22.87;45.44;101836.34;4196629;28;20040;-68
2022/05/03 07:38:55;;;;;;;17.63;12.53;;;;;;;22.90;45.80;101842.25;4195652;28;20040;-68
2022/05/03 07:41:02;;;;;;;15.63;12.73;;;;;;;22.92;45.61;101839.19;4197102;28;20354;-68
2022/05/03 07:43:05;;;;;;;15.18;11.90;;;;;;;22.89;45.53;101834.97;4197925;28;20036;-68
2022/05/03 07:45:07;;;;;;;17.00;13.07;;;;;;;22.91;45.81;101841.16;4197046;28;20049;-68
2022/05/03 07:47:08;;;;;;;15.65;12.35;;;;;;;22.91;45.80;101837.50;4198322;28;20044;-68
2022/05/03 07:49:11;;;;;;;14.18;11.98;;;;;;;22.91;45.53;101838.34;4197312;28;20067;-68
2022/05/03 07:51:13;;;;;;;15.73;12.13;;;;;;;22.91;46.02;101846.72;4197808;28;20500;-68
2022/05/03 07:53:14;;;;;;;13.88;12.25;;;;;;;22.82;45.67;101839.97;4196829;28;20046;-68
2022/05/03 07:55:16;;;;;;;15.40;12.05;;;;;;;22.77;45.85;101843.56;4196421;28;20380;-68
2022/05/03 07:57:17;;;;;;;14.75;11.63;;;;;;;22.86;45.47;101857.81;4196872;28;20029;-68
2022/05/03 07:59:21;;;;;;;13.20;10.88;;;;;;;22.86;45.66;101851.41;4196405;28;20044;-68
2022/05/03 08:01:22;;;;;;;13.48;11.13;;;;;;;22.87;45.52;101858.69;4196481;28;20608;-68
2022/05/03 08:03:24;;;;;;;14.20;11.55;;;;;;;22.86;45.86;101849.44;4197765;28;20040;-68
2022/05/03 08:05:25;;;;;;;14.90;11.70;;;;;;;22.80;45.75;101854.16;4196427;28;20044;-68
2022/05/03 08:07:26;;;;;;;15.10;11.73;;;;;;;22.76;45.58;101850.22;4185558;28;20040;-67
2022/05/03 08:09:28;;;;;;;15.45;11.57;;;;;;;22.84;45.89;101855.31;4167018;28;20041;-68
2022/05/03 08:11:32;;;;;;;11.88;10.25;;;;;;;22.82;45.58;101854.75;4189691;28;20086;-68
2022/05/03 08:13:34;;;;;;;12.85;9.98;;;;;;;22.86;45.30;101857.81;4197200;28;20029;-68
2022/05/03 08:15:35;;;;;;;16.13;11.80;;;;;;;22.78;45.52;101845.25;4197682;28;20473;-68
2022/05/03 08:17:39;;;;;;;15.43;11.88;;;;;;;22.77;45.54;101842.69;4201265;28;20044;-69
2022/05/03 08:19:41;;;;;;;14.68;11.85;;;;;;;22.81;45.53;101852.22;4198841;28;20098;-68
2022/05/03 08:21:42;;;;;;;15.05;11.73;;;;;;;22.86;46.03;101851.41;4186140;28;20041;-69
2022/05/03 08:23:44;;;;;;;13.27;11.23;;;;;;;22.83;45.96;101850.00;4185514;28;20037;-68
2022/05/03 08:25:45;;;;;;;14.90;11.23;;;;;;;22.83;45.89;101853.63;4186936;28;20065;-68
2022/05/03 08:27:47;;;;;;;14.20;11.13;;;;;;;22.77;45.83;101849.16;4200548;28;20094;-68
2022/05/03 08:29:54;;;;;;;14.40;10.80;;;;;;;22.79;46.09;101846.06;4195216;28;20048;-68
2022/05/03 08:31:55;;;;;;;15.00;11.10;;;;;;;22.81;45.81;101844.69;4173331;28;20048;-68
2022/05/03 08:33:57;;;;;;;14.02;11.43;;;;;;;22.81;45.46;101844.69;4199475;28;20094;-68
2022/05/03 08:36:01;;;;;;;14.07;11.05;;;;;;;22.81;45.46;101844.69;4199016;28;20048;-68
2022/05/03 08:42:51;;;;;;;13.88;11.20;;;;;;;22.81;45.52;101849.41;4184968;28;20095;-67
2022/05/03 08:44:52;;;;;;;12.65;11.05;;;;;;;22.80;45.61;101850.53;4183688;28;20052;-68
2022/05/03 08:46:56;;;;;;;12.95;10.80;;;;;;;22.77;45.73;101853.88;4185531;28;20041;-68
2022/05/03 08:49:02;;;;;;;13.07;10.15;;;;;;;22.76;45.62;101852.19;4183591;28;20103;-68
2022/05/03 08:51:07;;;;;;;12.23;9.52;;;;;;;22.78;45.52;101850.81;4183630;28;20071;-68
2022/05/03 08:53:12;;;;;;;11.07;9.70;;;;;;;22.77;44.98;101851.94;4183769;28;20446;-68
2022/05/03 08:55:14;;;;;;;12.07;9.88;;;;;;;22.70;45.25;101842.97;4183918;28;20041;-67
2022/05/03 08:57:18;;;;;;;11.45;9.88;;;;;;;22.74;45.58;101863.63;4179176;28;20041;-66
2022/05/03 08:59:20;;;;;;;13.00;10.88;;;;;;;22.73;45.44;101866.72;4186161;28;20097;-67
2022/05/03 09:01:22;;;;;;;11.60;10.18;;;;;;;22.54;45.49;101841.19;4197994;28;20102;-67
2022/05/03 09:03:24;;;;;;;12.13;10.10;;;;;;;22.72;45.84;101868.63;4192013;28;20446;-67
2022/05/03 09:05:26;;;;;;;12.38;9.23;;;;;;;22.73;45.49;101867.53;4189662;28;20117;-66
2022/05/03 09:07:27;;;;;;;12.52;9.80;;;;;;;22.73;45.59;101863.91;4183504;28;20036;-67
2022/05/03 09:09:28;;;;;;;11.98;9.52;;;;;;;22.73;45.63;101873.13;4183575;28;20369;-67
2022/05/03 09:11:46;;;;;;;9.95;8.35;;;;;;;22.74;45.58;101872.00;4186695;28;20475;-67
2022/05/03 09:13:47;;;;;;;11.50;9.15;;;;;;;22.76;45.59;101863.34;4179777;28;20110;-66
2022/05/03 09:15:51;;;;;;;10.65;9.52;;;;;;;22.72;45.35;101856.63;4197273;28;20110;-67
2022/05/03 09:17:53;;;;;;;11.93;8.23;;;;;;;22.77;45.10;101870.59;4196584;28;20098;-67
2022/05/03 09:19:54;;;;;;;12.45;9.27;;;;;;;22.77;45.15;101865.03;4188447;28;20040;-67
2022/05/03 09:24:15;;;;;;;9.90;8.90;;;;;;;22.78;45.19;101867.56;4185068;28;20086;-67
2022/05/03 09:26:24;;;;;;;11.10;9.52;;;;;;;22.78;45.37;101867.56;4182300;28;20443;-67
2022/05/03 09:28:25;;;;;;;9.38;8.38;;;;;;;22.77;45.45;101865.03;4183393;28;20037;-67
2022/05/03 09:30:33;;;;;;;9.00;8.10;;;;;;;22.78;45.41;101875.94;4183751;28;20037;-68
2022/05/03 09:32:40;;;;;;;9.82;8.25;;;;;;;22.78;44.89;101877.88;4183326;28;20036;-67
2022/05/03 09:34:41;;;;;;;11.15;9.25;;;;;;;22.74;45.24;101872.00;4183270;28;20033;-67
2022/05/03 09:37:05;;;;;;;11.35;9.13;;;;;;;22.73;45.33;101880.66;4182633;28;20465;-67
2022/05/03 09:39:06;;;;;;;9.40;8.40;;;;;;;22.67;45.33;101868.59;4182367;28;20053;-67
2022/05/03 09:41:20;;;;;;;8.60;7.70;;;;;;;22.76;44.89;101880.09;4182781;28;20439;-67
2022/05/03 09:43:21;;;;;;;9.23;7.93;;;;;;;22.78;45.16;101873.16;4182884;28;20439;-68
2022/05/03 09:45:25;;;;;;;10.73;8.85;;;;;;;22.79;44.99;101876.78;4182693;28;20033;-68
2022/05/03 09:47:29;;;;;;;7.90;7.10;;;;;;;22.74;44.92;101863.63;4183811;28;20442;-68
2022/05/03 09:49:35;;;;;;;9.60;8.05;;;;;;;22.75;45.15;101870.88;4194910;28;20099;-68
2022/05/03 09:51:38;;;;;;;9.07;7.93;;;;;;;22.64;45.35;101852.44;4184773;28;20102;-68
2022/05/03 09:53:40;;;;;;;8.48;7.57;;;;;;;22.76;44.80;101868.94;4182893;28;20041;-68
2022/05/03 09:55:42;;;;;;;9.68;6.82;;;;;;;22.74;44.80;101866.44;4183741;28;20045;-68
2022/05/03 09:57:44;;;;;;;9.45;7.65;;;;;;;22.76;45.18;101866.97;4196309;28;20501;-68
2022/05/03 09:59:47;;;;;;;9.50;7.95;;;;;;;22.63;45.41;101859.09;4197654;28;20514;-68
2022/05/03 10:01:49;;;;;;;8.00;7.18;;;;;;;22.68;45.22;101878.69;4198149;28;20544;-69
2022/05/03 10:03:52;;;;;;;9.75;7.50;;;;;;;22.69;45.28;101869.19;4198004;28;20048;-68
2022/05/03 10:05:56;;;;;;;7.32;6.63;;;;;;;22.71;45.19;101875.31;4193092;28;20044;-68
2022/05/03 10:07:58;;;;;;;8.00;7.20;;;;;;;22.72;45.56;101885.38;4182366;28;20041;-68
2022/05/03 10:10:03;;;;;;;8.52;6.93;;;;;;;22.72;45.37;101882.56;4182271;28;20037;-67
2022/05/03 10:12:05;;;;;;;9.55;7.35;;;;;;;22.70;45.20;101882.03;4190038;28;20110;-68
2022/05/03 10:14:08;;;;;;;7.88;6.90;;;;;;;22.72;45.29;101888.16;4197610;28;20098;-67
2022/05/03 10:21:10;;;;;;;8.88;7.30;;;;;;;22.72;44.75;101898.47;4198584;28;20454;-68
2022/05/03 10:23:19;;;;;;;9.10;7.65;;;;;;;22.71;45.67;101900.44;4196974;28;20070;-68
2022/05/03 10:25:50;;;;;;;8.68;6.97;;;;;;;22.71;45.24;101897.66;4182595;28;20075;-68
2022/05/03 10:27:56;;;;;;;8.75;7.22;;;;;;;22.71;45.58;101888.44;4192858;28;20040;-68
2022/05/03 10:30:20;;;;;;;8.25;6.82;;;;;;;22.68;45.44;101894.56;4184578;28;20557;-68
2022/05/03 10:32:22;;;;;;;7.95;6.28;;;;;;;22.52;45.04;101869.34;4165632;28;19913;-68
2022/05/03 10:34:53;;;;;;;8.10;6.75;;;;;;;22.67;45.45;101899.28;4168086;28;20033;-68
2022/05/03 10:36:57;;;;;;;8.45;6.88;;;;;;;22.71;44.99;101899.59;4181831;28;20041;-68
2022/05/03 10:39:06;;;;;;;8.17;6.70;;;;;;;22.70;45.32;101901.56;4187379;28;20032;-68
2022/05/03 10:41:13;;;;;;;8.85;6.90;;;;;;;22.62;45.11;101896.47;4198399;28;20036;-68
2022/05/03 10:43:36;;;;;;;7.40;6.70;;;;;;;22.67;45.52;101918.81;4198665;28;20032;-68
2022/05/03 10:46:12;;;;;;;7.60;6.63;;;;;;;22.65;45.62;101918.25;4198334;28;20173;-68
2022/05/03 10:48:29;;;;;;;9.00;7.38;;;;;;;22.71;45.23;101924.72;4182684;28;20041;-68
2022/05/03 10:50:36;;;;;;;8.25;6.32;;;;;;;22.73;45.08;101923.34;4181653;28;20033;-68
2022/05/03 10:52:38;;;;;;;7.93;7.10;;;;;;;22.71;44.92;101925.53;4182292;28;20107;-68